Time;durP1;ratioP1;P1;durP2;ratioP2;P2;SDS_P1;SDS_P2;PMS_P1;PMS_P2;Temp;Humidity;BMP_temperature;BMP_pressure;BME280_temperature;BME280_humidity;BME280_pressure;Samples;Min_cycle;Max_cycle;Signal;HPM_P1;HPM_P2
2021/09/30 00:00:13;;;;;;;3.80;2.45;;;8.30;99.90;;;;;;4945939;28;20034;-73
2021/09/30 00:02:40;;;;;;;3.03;1.75;;;8.30;99.90;;;;;;4985807;28;20045;-73
2021/09/30 00:05:09;;;;;;;3.53;1.83;;;8.30;99.90;;;;;;4976834;28;20105;-72
2021/09/30 00:07:36;;;;;;;2.10;1.88;;;8.30;99.90;;;;;;4976982;28;20502;-70
2021/09/30 00:10:05;;;;;;;3.70;1.95;;;8.30;99.90;;;;;;4979535;28;20100;-72
2021/09/30 00:12:37;;;;;;;3.13;1.65;;;8.30;99.90;;;;;;4985773;28;20077;-73
2021/09/30 00:15:08;;;;;;;3.85;2.13;;;8.30;99.90;;;;;;4997482;28;20062;-72
2021/09/30 00:40:12;;;;;;;4.28;2.20;;;8.40;99.90;;;;;;5011931;28;20050;-72
2021/09/30 00:47:58;;;;;;;3.90;2.47;;;8.40;99.90;;;;;;4998788;28;20050;-71
2021/09/30 00:50:44;;;;;;;;;;;8.40;99.90;;;;;;4996341;28;20190;-72
2021/09/30 00:53:36;;;;;;;4.18;2.72;;;8.40;99.90;;;;;;4999465;28;20417;-71
2021/09/30 01:29:37;;;;;;;10.07;3.43;;;8.60;99.90;;;;;;4994830;28;20458;-73
2021/09/30 02:28:48;;;;;;;6.15;4.50;;;8.30;99.90;;;;;;4999857;28;20053;-74
2021/09/30 02:40:04;;;;;;;11.30;4.70;;;8.30;99.90;;;;;;4982733;28;20046;-74
2021/09/30 02:59:56;;;;;;;13.05;6.00;;;8.30;99.90;;;;;;5015394;28;20376;-71
2021/09/30 03:02:31;;;;;;;7.80;5.28;;;8.40;99.90;;;;;;4982344;28;20496;-72
2021/09/30 03:05:00;;;;;;;12.20;5.38;;;8.40;99.90;;;;;;4997866;28;20133;-73
2021/09/30 03:07:27;;;;;;;12.07;6.15;;;8.40;99.90;;;;;;4965626;28;20092;-73
2021/09/30 03:09:55;;;;;;;11.85;5.55;;;8.40;99.90;;;;;;4991242;28;20050;-72
2021/09/30 03:12:29;;;;;;;10.00;6.03;;;8.40;99.90;;;;;;4963122;28;20039;-72
2021/09/30 03:20:36;;;;;;;14.05;6.05;;;8.50;99.90;;;;;;4999182;28;20489;-72
2021/09/30 03:23:07;;;;;;;15.23;6.35;;;8.60;99.90;;;;;;4999010;28;20141;-73
2021/09/30 03:25:36;;;;;;;13.20;5.88;;;8.60;99.90;;;;;;4998311;28;20054;-71
2021/09/30 03:28:04;;;;;;;13.00;5.95;;;8.60;99.90;;;;;;4982672;28;20373;-73
2021/09/30 03:30:34;;;;;;;10.07;6.00;;;8.60;99.90;;;;;;4981971;28;20049;-71
2021/09/30 03:33:06;;;;;;;10.45;5.60;;;8.60;99.90;;;;;;4980735;28;20278;-71
2021/09/30 03:35:37;;;;;;;10.27;5.60;;;8.60;99.90;;;;;;4962715;28;20396;-72
2021/09/30 03:38:05;;;;;;;10.68;4.60;;;8.60;99.90;;;;;;4992181;28;20457;-71
2021/09/30 03:40:34;;;;;;;12.75;6.15;;;8.70;99.90;;;;;;4979487;28;20120;-72
2021/09/30 03:43:02;;;;;;;11.10;5.00;;;8.70;99.90;;;;;;4962848;28;20137;-72
2021/09/30 03:45:30;;;;;;;5.35;3.88;;;8.70;99.90;;;;;;4946522;28;20721;-73
2021/09/30 03:48:08;;;;;;;8.55;5.70;;;8.60;99.90;;;;;;4966749;28;20144;-72
2021/09/30 03:50:45;;;;;;;8.27;5.15;;;8.60;99.90;;;;;;4980595;28;20046;-73
2021/09/30 04:01:20;;;;;;;11.70;5.38;;;8.30;99.90;;;;;;4982229;28;20524;-74
2021/09/30 04:03:47;;;;;;;7.15;5.40;;;8.30;99.90;;;;;;4974299;28;20046;-72
2021/09/30 04:06:14;;;;;;;8.02;4.97;;;8.30;99.90;;;;;;4974571;28;20049;-73
2021/09/30 04:08:40;;;;;;;10.73;5.25;;;8.20;99.90;;;;;;4996632;28;20446;-73
2021/09/30 04:11:07;;;;;;;8.48;5.65;;;8.10;99.90;;;;;;4999293;28;20061;-71
2021/09/30 04:13:35;;;;;;;9.43;6.55;;;8.10;99.90;;;;;;4981801;28;20131;-71
2021/09/30 04:16:03;;;;;;;7.18;5.57;;;8.10;99.90;;;;;;4998039;28;20129;-72
2021/09/30 04:18:31;;;;;;;15.23;5.97;;;8.10;99.90;;;;;;4981506;28;20140;-73
2021/09/30 04:20:59;;;;;;;8.75;5.63;;;8.20;99.90;;;;;;4996620;28;20057;-72
2021/09/30 04:23:26;;;;;;;9.15;5.95;;;8.10;99.90;;;;;;4980834;28;20049;-73
2021/09/30 04:25:53;;;;;;;10.02;5.85;;;8.10;99.90;;;;;;4981843;28;20050;-73
2021/09/30 04:28:20;;;;;;;10.48;5.63;;;8.10;99.90;;;;;;4996795;28;20148;-72
2021/09/30 04:30:52;;;;;;;12.20;6.55;;;8.10;99.90;;;;;;4981929;28;20342;-72
2021/09/30 04:33:29;;;;;;;10.70;6.25;;;8.00;99.90;;;;;;4992660;28;20128;-73
2021/09/30 04:35:56;;;;;;;12.45;6.65;;;8.00;99.90;;;;;;4964889;28;20085;-72
2021/09/30 04:38:24;;;;;;;12.73;7.72;;;7.90;99.90;;;;;;4968293;28;20632;-72
2021/09/30 04:40:52;;;;;;;13.52;7.90;;;7.90;99.90;;;;;;4998161;28;20030;-72
2021/09/30 04:43:19;;;;;;;16.30;7.18;;;7.90;99.90;;;;;;4981181;28;20410;-72
2021/09/30 04:45:48;;;;;;;11.38;7.40;;;7.90;99.90;;;;;;4997482;28;20050;-72
2021/09/30 04:48:17;;;;;;;14.35;8.07;;;7.80;99.90;;;;;;4996594;28;20053;-72
2021/09/30 04:50:47;;;;;;;13.80;7.32;;;7.90;99.90;;;;;;4995657;28;20099;-72
2021/09/30 04:53:14;;;;;;;15.88;8.38;;;7.80;99.90;;;;;;4998276;28;20050;-73
2021/09/30 04:55:41;;;;;;;14.65;7.82;;;7.80;99.90;;;;;;4980662;28;20418;-72
2021/09/30 04:58:08;;;;;;;14.55;8.50;;;7.80;99.90;;;;;;4979155;28;20038;-73
2021/09/30 05:00:37;;;;;;;11.32;7.32;;;7.80;99.90;;;;;;4980889;28;20037;-71
2021/09/30 05:03:14;;;;;;;16.65;8.13;;;7.80;99.90;;;;;;4973370;28;20042;-72
2021/09/30 05:05:41;;;;;;;11.20;8.00;;;7.80;99.90;;;;;;4971560;28;20414;-73
2021/09/30 05:08:09;;;;;;;18.77;9.13;;;7.80;99.90;;;;;;5003215;28;20081;-72
2021/09/30 05:10:42;;;;;;;14.95;8.40;;;7.80;99.90;;;;;;4979250;28;20038;-73
2021/09/30 05:13:16;;;;;;;14.90;9.05;;;7.90;99.90;;;;;;4995300;28;20050;-72
2021/09/30 05:15:43;;;;;;;18.00;8.30;;;7.90;99.90;;;;;;4996251;28;20337;-72
2021/09/30 05:18:28;;;;;;;18.20;9.38;;;7.90;99.90;;;;;;4994849;28;20096;-72
2021/09/30 05:20:55;;;;;;;16.70;8.60;;;7.80;99.90;;;;;;4979643;28;20069;-72
2021/09/30 05:23:23;;;;;;;20.15;8.68;;;7.90;99.90;;;;;;4995281;28;20046;-72
2021/09/30 05:25:50;;;;;;;13.18;7.68;;;7.90;99.90;;;;;;4979276;28;20062;-71
2021/09/30 05:28:17;;;;;;;18.15;9.02;;;7.90;99.90;;;;;;4978512;28;20112;-72
2021/09/30 05:30:44;;;;;;;19.45;8.63;;;8.00;99.90;;;;;;4997522;28;20046;-73
2021/09/30 05:33:24;;;;;;;12.15;7.82;;;8.00;99.90;;;;;;4990574;28;20050;-74
2021/09/30 05:35:51;;;;;;;19.10;8.48;;;8.10;99.90;;;;;;4961487;28;20038;-73
2021/09/30 05:38:18;;;;;;;16.38;7.65;;;8.10;99.90;;;;;;4980588;28;20129;-73
2021/09/30 05:40:48;;;;;;;12.23;7.30;;;8.10;99.90;;;;;;4954428;28;20053;-71
2021/09/30 05:43:27;;;;;;;14.23;7.63;;;8.20;99.90;;;;;;4977857;28;20046;-72
2021/09/30 05:45:56;;;;;;;20.98;7.82;;;8.20;99.90;;;;;;4982565;28;20461;-73
2021/09/30 05:48:24;;;;;;;14.60;8.05;;;8.20;99.90;;;;;;4976297;28;20047;-72
2021/09/30 05:50:52;;;;;;;18.10;7.85;;;8.20;99.90;;;;;;4989201;28;20078;-71
2021/09/30 05:53:46;;;;;;;15.10;7.65;;;8.10;99.90;;;;;;5002236;28;20161;-72
2021/09/30 05:56:28;;;;;;;15.10;7.90;;;8.10;99.90;;;;;;4981945;28;20042;-72
2021/09/30 05:58:55;;;;;;;11.27;7.95;;;8.10;99.90;;;;;;5002508;28;20440;-73
2021/09/30 06:14:14;;;;;;;20.13;8.50;;;8.10;99.90;;;;;;4974436;28;20338;-73
2021/09/30 06:16:50;;;;;;;22.17;6.97;;;8.20;99.90;;;;;;4988105;28;20061;-72
2021/09/30 06:19:30;;;;;;;20.83;6.95;;;8.30;99.90;;;;;;4983775;28;20240;-73
2021/09/30 06:22:05;;;;;;;9.65;5.82;;;8.40;99.90;;;;;;5002242;28;20052;-73
2021/09/30 06:24:35;;;;;;;14.60;5.30;;;8.50;99.90;;;;;;4993754;28;20108;-72
2021/09/30 06:27:19;;;;;;;13.68;5.65;;;8.50;99.90;;;;;;4981544;28;20124;-73
2021/09/30 06:29:46;;;;;;;11.45;5.57;;;8.50;99.90;;;;;;4966190;28;20057;-70
2021/09/30 06:32:13;;;;;;;15.13;5.68;;;8.50;99.90;;;;;;4976225;28;20409;-73
2021/09/30 06:35:00;;;;;;;12.40;5.93;;;8.50;99.90;;;;;;4953516;28;20411;-73
2021/09/30 06:37:40;;;;;;;11.13;5.30;;;8.60;99.90;;;;;;4995464;28;20141;-74
2021/09/30 06:40:08;;;;;;;10.18;5.18;;;8.60;99.90;;;;;;5001145;28;20383;-74
2021/09/30 06:42:35;;;;;;;14.73;5.53;;;8.70;99.90;;;;;;5015694;28;20073;-72
2021/09/30 06:45:14;;;;;;;11.52;4.82;;;8.70;99.90;;;;;;5003072;28;20325;-73
2021/09/30 06:48:10;;;;;;;12.65;4.55;;;8.80;99.90;;;;;;4999605;28;20108;-73
2021/09/30 06:50:48;;;;;;;17.55;4.88;;;8.80;99.90;;;;;;5003379;28;20066;-71
2021/09/30 06:53:26;;;;;;;14.23;4.43;;;8.90;99.90;;;;;;4980826;28;20129;-71
2021/09/30 06:56:07;;;;;;;11.07;4.90;;;8.90;99.90;;;;;;4999794;28;20046;-74
2021/09/30 06:58:54;;;;;;;17.77;5.13;;;9.00;99.90;;;;;;4998525;28;20271;-73
2021/09/30 07:01:40;;;;;;;11.25;4.68;;;9.00;99.90;;;;;;5000824;28;20061;-74
2021/09/30 07:04:34;;;;;;;15.23;5.20;;;9.10;99.90;;;;;;5000001;28;20131;-73
2021/09/30 07:07:30;;;;;;;11.27;4.45;;;9.10;99.90;;;;;;4981133;28;20478;-73
2021/09/30 07:09:57;;;;;;;10.90;4.15;;;9.10;99.90;;;;;;4972738;28;20047;-74
2021/09/30 07:12:24;;;;;;;10.50;4.90;;;9.00;99.90;;;;;;4979904;28;20061;-72
2021/09/30 07:14:51;;;;;;;12.48;4.53;;;9.00;99.90;;;;;;4991027;28;20350;-75
2021/09/30 07:17:18;;;;;;;18.55;4.32;;;9.10;99.90;;;;;;4996866;28;20046;-73
2021/09/30 07:19:44;;;;;;;21.45;5.65;;;9.20;99.90;;;;;;4983227;28;20334;-72
2021/09/30 07:22:11;;;;;;;16.23;4.68;;;9.30;99.90;;;;;;4997883;28;20061;-74
2021/09/30 07:24:38;;;;;;;15.57;4.53;;;9.40;99.90;;;;;;4982983;28;20053;-72
2021/09/30 07:27:07;;;;;;;12.68;4.80;;;9.50;99.90;;;;;;4999078;28;20502;-72
2021/09/30 07:29:34;;;;;;;14.68;4.80;;;9.50;99.90;;;;;;4998582;28;20061;-72
2021/09/30 07:32:03;;;;;;;10.70;5.05;;;9.60;99.90;;;;;;4997973;28;20116;-73
2021/09/30 07:34:33;;;;;;;11.10;3.88;;;9.60;99.90;;;;;;4999571;28;20057;-72
2021/09/30 07:37:00;;;;;;;10.95;4.05;;;9.80;99.90;;;;;;4987482;28;20050;-70
2021/09/30 07:39:29;;;;;;;14.80;4.38;;;9.90;99.90;;;;;;4978989;28;20114;-72
2021/09/30 07:41:57;;;;;;;18.33;5.22;;;10.00;99.90;;;;;;4995131;28;20042;-73
2021/09/30 07:44:27;;;;;;;11.07;4.53;;;10.20;99.90;;;;;;4998956;28;20245;-72
2021/09/30 07:46:55;;;;;;;8.80;4.40;;;10.30;99.90;;;;;;4968944;28;20042;-74
2021/09/30 07:49:22;;;;;;;9.10;4.22;;;10.60;99.90;;;;;;4982761;28;20043;-72
2021/09/30 07:51:49;;;;;;;15.07;4.90;;;10.70;99.90;;;;;;4977411;28;20050;-72
2021/09/30 07:54:18;;;;;;;7.68;4.40;;;10.80;99.90;;;;;;4978081;28;20046;-72
2021/09/30 07:56:45;;;;;;;12.73;4.40;;;11.00;99.90;;;;;;4954423;28;20084;-71
2021/09/30 07:59:12;;;;;;;9.27;5.00;;;11.10;99.90;;;;;;4980125;28;20051;-72
2021/09/30 08:01:39;;;;;;;12.73;4.07;;;11.20;99.90;;;;;;4994650;28;20392;-71
2021/09/30 08:04:07;;;;;;;11.30;4.60;;;11.10;99.90;;;;;;4981720;28;20097;-72
2021/09/30 08:06:34;;;;;;;8.48;4.47;;;11.20;99.90;;;;;;4964748;28;20053;-71
2021/09/30 08:09:01;;;;;;;13.73;5.10;;;11.30;99.90;;;;;;4992853;28;20058;-71
2021/09/30 08:11:28;;;;;;;12.43;5.80;;;11.20;99.90;;;;;;4994775;28;20076;-71
2021/09/30 08:13:55;;;;;;;10.95;5.25;;;11.50;99.90;;;;;;4985313;28;20397;-74
2021/09/30 08:16:24;;;;;;;13.25;4.97;;;11.80;99.90;;;;;;5001446;28;20042;-72
2021/09/30 08:18:52;;;;;;;14.70;5.70;;;11.70;99.90;;;;;;5018287;28;20053;-72
2021/09/30 08:21:19;;;;;;;10.98;5.57;;;12.00;99.90;;;;;;5010103;28;20068;-73
2021/09/30 08:23:46;;;;;;;10.30;5.20;;;11.90;99.90;;;;;;4998535;28;20336;-71
2021/09/30 08:26:18;;;;;;;15.40;5.03;;;12.00;99.90;;;;;;4999061;28;20750;-71
2021/09/30 08:28:51;;;;;;;16.55;5.97;;;11.90;99.90;;;;;;4964738;28;20538;-72
2021/09/30 08:31:21;;;;;;;15.77;5.50;;;11.70;99.90;;;;;;4981281;28;20081;-72
2021/09/30 08:33:49;;;;;;;15.40;6.93;;;11.80;99.90;;;;;;4955357;28;20461;-71
2021/09/30 08:36:17;;;;;;;20.92;6.10;;;11.90;99.90;;;;;;4961381;28;20047;-72
2021/09/30 08:38:44;;;;;;;16.13;6.15;;;12.00;99.90;;;;;;4992175;28;20054;-72
2021/09/30 08:41:14;;;;;;;13.93;7.38;;;12.30;99.90;;;;;;4977981;28;20521;-72
2021/09/30 08:43:42;;;;;;;13.45;6.28;;;12.30;99.90;;;;;;4998009;28;20046;-70
2021/09/30 08:46:09;;;;;;;14.25;6.55;;;12.40;99.90;;;;;;5013274;28;20058;-71
2021/09/30 08:48:36;;;;;;;13.35;6.68;;;12.30;99.90;;;;;;4981700;28;20054;-71
2021/09/30 08:51:05;;;;;;;20.90;6.13;;;12.40;99.90;;;;;;4981122;28;20517;-73
2021/09/30 08:53:33;;;;;;;9.07;6.97;;;12.50;99.90;;;;;;4998115;28;20046;-73
2021/09/30 08:56:03;;;;;;;17.23;8.73;;;12.70;99.90;;;;;;4990850;28;20475;-70
2021/09/30 08:58:30;;;;;;;7.88;7.22;;;12.60;99.90;;;;;;4973136;28;20041;-72
2021/09/30 09:00:58;;;;;;;10.77;7.45;;;12.60;99.90;;;;;;4953037;28;20073;-73
2021/09/30 09:03:44;;;;;;;16.27;7.93;;;12.60;99.90;;;;;;4974636;28;20041;-71
2021/09/30 09:06:35;;;;;;;12.38;7.50;;;12.60;99.90;;;;;;4997068;28;20049;-73
2021/09/30 09:09:22;;;;;;;9.60;7.43;;;12.80;99.90;;;;;;4988549;28;20061;-73
2021/09/30 09:11:51;;;;;;;14.55;7.97;;;12.80;99.90;;;;;;4990511;28;20050;-71
2021/09/30 09:14:26;;;;;;;11.30;7.97;;;12.90;99.90;;;;;;4997054;28;20056;-71
2021/09/30 09:17:03;;;;;;;11.27;6.95;;;13.00;99.90;;;;;;4994343;28;20054;-73
2021/09/30 09:19:40;;;;;;;18.10;8.25;;;13.00;99.90;;;;;;4995900;28;20209;-72
2021/09/30 09:22:15;;;;;;;9.85;8.40;;;13.20;99.90;;;;;;5001880;28;20084;-73
2021/09/30 09:25:00;;;;;;;;;;;13.20;99.90;;;;;;4980692;28;20049;-74
2021/09/30 09:27:46;;;;;;;10.20;7.97;;;13.10;99.90;;;;;;4994677;28;19926;-73
2021/09/30 09:30:34;;;;;;;10.10;7.75;;;13.30;99.90;;;;;;4993687;28;20064;-73
2021/09/30 09:33:05;;;;;;;9.95;7.88;;;13.30;99.90;;;;;;4975807;28;20101;-71
2021/09/30 09:35:54;;;;;;;10.93;8.55;;;13.30;99.90;;;;;;4975702;28;20496;-71
2021/09/30 09:38:25;;;;;;;14.30;8.85;;;13.60;99.90;;;;;;4971959;28;20057;-71
2021/09/30 09:41:04;;;;;;;14.27;9.40;;;13.80;99.90;;;;;;4956347;28;20166;-72
2021/09/30 09:43:33;;;;;;;12.68;9.55;;;13.50;99.90;;;;;;4991530;28;20137;-72
2021/09/30 09:46:02;;;;;;;13.23;10.05;;;13.50;99.90;;;;;;4993135;28;20046;-72
2021/09/30 09:48:32;;;;;;;10.65;9.38;;;13.20;99.90;;;;;;4966853;28;20066;-70
2021/09/30 09:51:01;;;;;;;9.65;8.52;;;13.30;99.90;;;;;;4978216;28;20061;-71
2021/09/30 09:53:30;;;;;;;10.90;8.80;;;13.40;99.90;;;;;;4981454;28;20057;-72
2021/09/30 09:56:20;;;;;;;11.80;8.95;;;13.20;99.90;;;;;;4963972;28;20042;-72
2021/09/30 09:58:57;;;;;;;14.77;8.82;;;13.00;99.90;;;;;;4979563;28;20061;-73
2021/09/30 10:01:28;;;;;;;11.70;9.20;;;13.20;99.90;;;;;;4984878;28;20406;-72
2021/09/30 10:04:00;;;;;;;10.98;8.32;;;13.40;99.90;;;;;;4994273;28;20077;-71
2021/09/30 10:06:29;;;;;;;13.70;8.90;;;13.60;99.90;;;;;;4994993;28;20155;-71
2021/09/30 10:08:57;;;;;;;10.85;7.85;;;13.60;99.90;;;;;;4995321;28;20502;-72
2021/09/30 10:11:28;;;;;;;11.27;8.43;;;13.20;99.90;;;;;;4955891;28;20062;-72
2021/09/30 10:13:58;;;;;;;9.52;8.13;;;13.10;99.90;;;;;;4988062;28;20051;-72
2021/09/30 10:16:26;;;;;;;13.18;8.18;;;13.30;99.90;;;;;;4993746;28;20411;-71
2021/09/30 10:19:06;;;;;;;9.45;8.65;;;13.40;99.90;;;;;;4975420;28;20049;-71
2021/09/30 10:21:34;;;;;;;15.95;9.68;;;13.40;99.90;;;;;;4988285;28;20041;-71
2021/09/30 10:24:05;;;;;;;9.93;9.00;;;13.50;99.90;;;;;;4979037;28;20521;-72
2021/09/30 10:26:38;;;;;;;9.95;8.27;;;13.80;99.90;;;;;;4981443;28;20143;-73
2021/09/30 10:29:05;;;;;;;10.27;8.60;;;13.90;99.90;;;;;;4979556;28;20037;-73
2021/09/30 10:31:37;;;;;;;11.90;8.80;;;13.70;99.90;;;;;;4984193;28;20103;-72
2021/09/30 10:34:09;;;;;;;11.65;8.15;;;13.60;99.90;;;;;;4996635;28;20168;-71
2021/09/30 10:36:45;;;;;;;8.55;7.72;;;13.30;99.90;;;;;;4983657;28;20056;-72
2021/09/30 10:39:31;;;;;;;13.13;7.93;;;13.00;99.90;;;;;;4984394;28;20046;-71
2021/09/30 10:42:01;;;;;;;8.77;7.38;;;12.80;99.90;;;;;;4997376;28;20046;-71
2021/09/30 10:44:36;;;;;;;8.68;7.72;;;12.80;99.90;;;;;;4981925;28;20463;-71
2021/09/30 10:47:05;;;;;;;16.13;8.02;;;13.10;99.90;;;;;;4980013;28;20069;-73
2021/09/30 10:49:44;;;;;;;12.57;8.57;;;13.40;99.90;;;;;;4964102;28;20045;-71
2021/09/30 10:52:22;;;;;;;9.43;8.55;;;13.10;99.90;;;;;;4987543;28;20138;-71
2021/09/30 10:55:05;;;;;;;12.68;8.70;;;13.10;99.90;;;;;;4998129;28;20057;-73
2021/09/30 10:57:32;;;;;;;12.93;9.95;;;13.50;99.90;;;;;;4999660;28;20049;-71
2021/09/30 11:00:00;;;;;;;10.23;8.65;;;13.80;99.90;;;;;;5001306;28;20053;-71
2021/09/30 11:03:01;;;;;;;10.80;9.32;;;14.00;99.90;;;;;;4986450;28;20392;-72
2021/09/30 11:05:30;;;;;;;10.70;8.43;;;13.60;99.90;;;;;;4982394;28;20112;-70
2021/09/30 11:08:23;;;;;;;11.07;9.82;;;13.30;99.90;;;;;;4988655;28;20474;-69
2021/09/30 11:11:12;;;;;;;9.02;8.13;;;13.10;99.90;;;;;;4975413;28;20049;-71
2021/09/30 11:13:44;;;;;;;13.13;9.73;;;12.90;99.90;;;;;;5013855;28;20073;-71
2021/09/30 11:16:17;;;;;;;12.63;8.55;;;12.80;99.90;;;;;;5002286;28;20138;-71
2021/09/30 11:18:44;;;;;;;12.25;8.82;;;12.80;99.90;;;;;;5017022;28;20109;-71
2021/09/30 11:21:32;;;;;;;11.82;9.65;;;12.80;99.90;;;;;;4959001;28;20349;-71
2021/09/30 11:24:05;;;;;;;11.10;10.02;;;12.90;99.90;;;;;;4990673;28;20371;-71
2021/09/30 11:26:35;;;;;;;12.05;9.02;;;13.10;99.90;;;;;;5001267;28;20046;-72
2021/09/30 11:29:36;;;;;;;15.48;9.60;;;13.40;99.90;;;;;;5002348;28;20050;-71
2021/09/30 11:32:03;;;;;;;12.07;10.82;;;13.60;99.90;;;;;;4974807;28;20111;-70
2021/09/30 11:34:31;;;;;;;12.57;11.30;;;13.90;99.90;;;;;;5001488;28;20130;-71
2021/09/30 11:37:14;;;;;;;12.27;10.82;;;13.80;99.90;;;;;;5003777;28;20112;-73
2021/09/30 11:39:41;;;;;;;11.43;10.45;;;13.90;99.90;;;;;;4979873;28;20517;-71
2021/09/30 11:42:08;;;;;;;12.07;10.93;;;13.80;99.90;;;;;;5000804;28;20050;-72
2021/09/30 11:44:35;;;;;;;12.07;11.18;;;14.10;99.90;;;;;;4986267;28;20128;-71
2021/09/30 11:47:02;;;;;;;15.55;12.32;;;14.20;99.90;;;;;;4984521;28;20089;-71
2021/09/30 11:49:40;;;;;;;11.80;10.95;;;14.30;99.90;;;;;;5002271;28;20061;-71
2021/09/30 11:52:15;;;;;;;12.15;11.07;;;14.30;99.90;;;;;;4983993;28;20129;-72
2021/09/30 11:54:42;;;;;;;12.00;11.18;;;14.60;99.90;;;;;;4981960;28;20491;-72
2021/09/30 11:57:26;;;;;;;11.93;11.02;;;14.60;99.90;;;;;;4985789;28;20825;-71
2021/09/30 12:00:11;;;;;;;12.82;11.90;;;14.50;99.90;;;;;;4982117;28;20077;-72
2021/09/30 12:02:56;;;;;;;21.38;11.77;;;14.30;99.90;;;;;;4964967;28;20057;-71
2021/09/30 12:05:25;;;;;;;11.10;10.30;;;14.30;99.90;;;;;;4981394;28;20070;-71
2021/09/30 12:07:52;;;;;;;11.90;11.00;;;14.00;99.90;;;;;;4981241;28;20069;-73
2021/09/30 12:10:19;;;;;;;12.40;11.40;;;14.00;99.90;;;;;;4989646;28;20199;-73
2021/09/30 12:12:46;;;;;;;12.55;11.45;;;14.30;99.90;;;;;;4980764;28;20042;-71
2021/09/30 12:15:14;;;;;;;13.35;12.18;;;14.40;99.90;;;;;;5000432;28;20486;-72
2021/09/30 12:17:42;;;;;;;12.75;11.55;;;14.50;99.90;;;;;;4999962;28;20137;-70
2021/09/30 12:20:13;;;;;;;13.05;11.85;;;14.30;99.90;;;;;;5000304;28;20048;-72
2021/09/30 12:22:55;;;;;;;10.82;10.00;;;14.20;99.90;;;;;;4982964;28;20057;-72
2021/09/30 12:25:28;;;;;;;16.35;10.25;;;14.00;99.90;;;;;;4981930;28;20134;-71
2021/09/30 12:27:58;;;;;;;11.45;10.63;;;13.90;99.90;;;;;;4981656;28;20058;-70
2021/09/30 12:30:28;;;;;;;10.93;10.07;;;13.70;99.90;;;;;;4987636;28;20058;-73
2021/09/30 12:33:01;;;;;;;12.98;10.75;;;13.60;99.90;;;;;;4989826;28;20081;-73
2021/09/30 12:35:30;;;;;;;10.75;9.88;;;13.60;99.90;;;;;;4965091;28;20144;-71
2021/09/30 12:38:00;;;;;;;11.45;10.43;;;13.80;99.90;;;;;;4964651;28;20268;-72
2021/09/30 12:40:40;;;;;;;12.93;11.77;;;13.80;99.90;;;;;;4980652;28;20046;-72
2021/09/30 12:43:11;;;;;;;11.63;10.90;;;13.90;99.90;;;;;;4972514;28;20058;-73
2021/09/30 12:45:57;;;;;;;12.82;11.75;;;14.00;99.90;;;;;;4982359;28;20069;-72
2021/09/30 12:48:27;;;;;;;12.82;11.85;;;14.10;99.90;;;;;;4998595;28;20612;-72
2021/09/30 12:50:58;;;;;;;13.18;11.85;;;14.00;99.90;;;;;;4988179;28;20156;-72
2021/09/30 12:53:26;;;;;;;13.95;12.70;;;13.90;99.90;;;;;;4979181;28;20121;-72
2021/09/30 12:56:06;;;;;;;11.85;10.95;;;13.90;99.90;;;;;;4968338;28;20034;-73
2021/09/30 12:58:39;;;;;;;13.23;11.95;;;13.90;99.90;;;;;;5000368;28;20078;-71
2021/09/30 13:01:27;;;;;;;13.65;11.75;;;14.10;99.90;;;;;;5001683;28;20125;-73
2021/09/30 13:04:22;;;;;;;12.15;10.93;;;14.40;99.90;;;;;;4965609;28;20050;-72
2021/09/30 13:07:01;;;;;;;12.25;11.25;;;14.40;99.90;;;;;;5001099;28;20391;-73
2021/09/30 13:09:33;;;;;;;12.38;11.18;;;14.40;99.90;;;;;;4999327;28;20581;-72
2021/09/30 13:12:09;;;;;;;12.23;11.05;;;14.40;99.90;;;;;;4981288;28;20050;-72
2021/09/30 13:14:49;;;;;;;12.07;11.25;;;14.30;99.90;;;;;;4980221;28;20160;-73
2021/09/30 13:17:24;;;;;;;12.23;11.23;;;14.30;99.90;;;;;;4978544;28;20108;-70
2021/09/30 13:20:08;;;;;;;12.18;11.15;;;14.40;99.90;;;;;;4983758;28;20120;-71
2021/09/30 13:22:35;;;;;;;12.40;11.45;;;14.30;99.90;;;;;;4981886;28;20049;-71
2021/09/30 13:25:15;;;;;;;12.45;11.40;;;14.30;99.90;;;;;;4981572;28;20066;-71
2021/09/30 13:27:44;;;;;;;12.40;11.45;;;14.00;99.90;;;;;;4981057;28;20124;-70
2021/09/30 13:30:14;;;;;;;12.98;11.60;;;14.20;99.90;;;;;;4963858;28;20061;-71
2021/09/30 13:32:42;;;;;;;12.10;11.05;;;14.20;99.90;;;;;;4964305;28;20388;-72
2021/09/30 13:35:10;;;;;;;11.75;10.63;;;14.20;99.90;;;;;;4979797;28;20118;-70
2021/09/30 13:37:37;;;;;;;11.82;10.73;;;14.20;99.90;;;;;;4977821;28;20038;-71
2021/09/30 13:40:07;;;;;;;12.10;11.00;;;14.20;99.90;;;;;;4993283;28;20054;-72
2021/09/30 13:42:36;;;;;;;12.30;11.18;;;14.20;99.90;;;;;;4983307;28;20378;-73
2021/09/30 13:45:06;;;;;;;12.70;11.73;;;14.10;99.90;;;;;;4999565;28;20172;-72
2021/09/30 13:47:34;;;;;;;12.48;11.40;;;14.10;99.90;;;;;;4982794;28;20042;-73
2021/09/30 13:50:01;;;;;;;13.10;11.63;;;14.40;99.90;;;;;;4967926;28;20045;-71
2021/09/30 13:52:29;;;;;;;11.20;10.45;;;14.70;99.90;;;;;;5015119;28;20118;-71
2021/09/30 13:54:56;;;;;;;12.77;11.75;;;14.90;99.90;;;;;;4983170;28;20090;-73
2021/09/30 13:57:22;;;;;;;11.95;11.32;;;14.70;99.90;;;;;;4983106;28;20526;-72
2021/09/30 13:59:49;;;;;;;12.98;11.82;;;14.40;99.90;;;;;;5003530;28;20054;-71
2021/09/30 14:02:38;;;;;;;12.18;11.43;;;14.20;99.90;;;;;;4985224;28;20057;-72
2021/09/30 14:05:06;;;;;;;11.57;10.85;;;14.20;99.90;;;;;;5003444;28;20149;-71
2021/09/30 14:07:35;;;;;;;12.20;11.43;;;14.20;99.90;;;;;;4969640;28;20042;-73
2021/09/30 14:10:05;;;;;;;12.77;11.43;;;14.20;99.90;;;;;;4979094;28;20050;-71
2021/09/30 14:12:32;;;;;;;12.15;11.23;;;14.30;99.90;;;;;;4988765;28;20426;-73
2021/09/30 14:14:59;;;;;;;11.32;10.63;;;14.60;99.90;;;;;;5002909;28;20375;-72
2021/09/30 14:17:26;;;;;;;11.63;10.82;;;14.60;99.90;;;;;;5002641;28;20514;-72
2021/09/30 14:19:53;;;;;;;12.32;11.43;;;14.60;99.90;;;;;;5002440;28;20054;-73
2021/09/30 14:22:22;;;;;;;12.07;11.15;;;14.50;99.90;;;;;;4983456;28;20072;-72
2021/09/30 14:24:49;;;;;;;12.20;11.43;;;14.30;99.90;;;;;;4978927;28;20056;-72
2021/09/30 14:27:16;;;;;;;12.07;11.15;;;14.20;99.90;;;;;;4987473;28;20114;-72
2021/09/30 14:29:43;;;;;;;11.55;10.45;;;14.10;99.90;;;;;;5003096;28;20741;-72
2021/09/30 14:32:12;;;;;;;11.30;10.50;;;14.00;99.90;;;;;;4986999;28;20050;-73
2021/09/30 14:34:40;;;;;;;12.20;10.30;;;14.00;99.90;;;;;;5002426;28;20534;-72
2021/09/30 14:37:08;;;;;;;11.27;10.45;;;13.90;99.90;;;;;;5003415;28;20049;-72
2021/09/30 14:39:35;;;;;;;11.68;10.77;;;13.80;99.90;;;;;;4987039;28;20470;-72
2021/09/30 14:42:02;;;;;;;11.15;10.35;;;13.80;99.90;;;;;;4995623;28;20072;-72
2021/09/30 14:44:29;;;;;;;12.32;11.30;;;13.80;99.90;;;;;;4983057;28;20098;-73
2021/09/30 14:46:56;;;;;;;11.45;10.70;;;13.70;99.90;;;;;;4981570;28;20046;-73
2021/09/30 14:49:25;;;;;;;12.23;11.13;;;13.70;99.90;;;;;;4984974;28;20518;-72
2021/09/30 14:51:52;;;;;;;12.00;10.98;;;13.70;99.90;;;;;;4994954;28;20046;-73
2021/09/30 14:54:20;;;;;;;11.23;10.32;;;13.70;99.90;;;;;;4984409;28;20057;-73
2021/09/30 14:56:47;;;;;;;11.63;10.73;;;13.70;99.90;;;;;;4978486;28;20041;-73
2021/09/30 14:59:16;;;;;;;11.88;11.13;;;13.70;99.90;;;;;;4985002;28;20473;-71
2021/09/30 15:01:43;;;;;;;12.20;11.10;;;13.70;99.90;;;;;;4985538;28;20058;-72
2021/09/30 15:04:10;;;;;;;11.60;10.80;;;13.70;99.90;;;;;;4984928;28;20347;-71
2021/09/30 15:06:39;;;;;;;10.52;10.02;;;13.60;99.90;;;;;;5001777;28;20050;-72
2021/09/30 15:09:07;;;;;;;11.30;10.02;;;13.60;99.90;;;;;;5003850;28;20096;-73
2021/09/30 15:11:37;;;;;;;11.48;10.48;;;13.60;99.90;;;;;;4988263;28;20042;-72
2021/09/30 15:14:06;;;;;;;10.32;9.60;;;13.50;99.90;;;;;;5003025;28;20064;-71
2021/09/30 15:16:35;;;;;;;14.93;13.68;;;13.50;99.90;;;;;;5001625;28;20057;-71
2021/09/30 15:19:05;;;;;;;12.77;11.55;;;13.50;99.90;;;;;;4986224;28;20046;-71
2021/09/30 15:21:33;;;;;;;11.07;10.32;;;13.60;99.90;;;;;;4978920;28;20164;-72
2021/09/30 15:24:04;;;;;;;11.25;10.23;;;13.60;99.90;;;;;;4991342;28;20427;-70
2021/09/30 15:26:34;;;;;;;12.32;11.40;;;13.60;99.90;;;;;;4965098;28;20054;-72
2021/09/30 15:29:03;;;;;;;10.88;10.18;;;13.40;99.90;;;;;;4982083;28;20086;-72
2021/09/30 15:31:31;;;;;;;11.10;10.20;;;13.40;99.90;;;;;;4994196;28;20129;-71
2021/09/30 15:33:58;;;;;;;10.52;10.02;;;13.30;99.90;;;;;;5002083;28;20227;-71
2021/09/30 15:36:25;;;;;;;10.63;9.70;;;13.30;99.90;;;;;;5000435;28;20096;-72
2021/09/30 15:38:54;;;;;;;11.15;10.43;;;13.30;99.90;;;;;;4994701;28;20081;-71
2021/09/30 15:41:22;;;;;;;11.40;10.50;;;13.20;99.90;;;;;;4996615;28;20125;-72
2021/09/30 15:43:50;;;;;;;12.55;11.32;;;13.30;99.90;;;;;;5001211;28;20073;-70
2021/09/30 15:46:17;;;;;;;13.27;12.13;;;13.20;99.90;;;;;;4999979;28;20042;-71
2021/09/30 15:48:44;;;;;;;12.60;11.48;;;13.20;99.90;;;;;;4983154;28;20053;-73
2021/09/30 15:51:11;;;;;;;11.50;10.60;;;13.20;99.90;;;;;;4956026;28;20122;-71